<?xml version="1.0" encoding="UTF-8" standalone="no" ?>
<gpx xmlns="http://www.topografix.com/GPX/1/1" xmlns:xsi="http://www.w3.org/2001/XMLSchema-instance" xsi:schemaLocation="http://www.topografix.com/GPX/1/1 http://www.topografix.com/GPX/1/1/gpx.xsd" version="1.1" creator="VisuGPX - https://www.visugpx.com">
  <metadata>
    <name>La nocturne à LAGUEPIE 12 km</name>
    <desc><![CDATA["La Nocturne" vous propose pour sa première édition, un parcours Trail et VTT de 12 et 21 km. Organisée par l'association AVVTT (Aveyron, Viaur, VTT - Sport de pleine Nature).

Un ravito est proposé sur le parcours et le prix de 16 € comprend le repas + une bière à l'arrivée (dont 1€ de consigne).
(Soupe à l’oignon + croutons au fromage/ Saucisse grillée & patates braisées/Crêpe sucrée).
Le départ se fait à l'Escale Guépienne à LAGUEPIE 82250. Entre 17h30 et 18h30 pour les VTT et départ groupé pour le Trail à 18h30

Ambiance conviviale au programme et équipement de nuit obligatoire pour les participants (lumière avant/arrière, frontale, gilet, réflecteur...).]]></desc>
  </metadata>
  <trk>
    <name><![CDATA[nocturne 12 2024-19882370]]></name>
    <trkseg>
      <trkpt lat="44.14579" lon="1.97301">
        <ele>154</ele>
        <time>2024-11-19T08:02:04Z</time>
      </trkpt>
      <trkpt lat="44.14576" lon="1.97298">
        <ele>154</ele>
        <time>2024-11-19T08:02:05Z</time>
      </trkpt>
      <trkpt lat="44.14555" lon="1.97272">
        <ele>156</ele>
        <time>2024-11-19T08:02:11Z</time>
      </trkpt>
      <trkpt lat="44.14541" lon="1.97238">
        <ele>157</ele>
        <time>2024-11-19T08:02:18Z</time>
      </trkpt>
      <trkpt lat="44.14523" lon="1.97156">
        <ele>157</ele>
        <time>2024-11-19T08:02:32Z</time>
      </trkpt>
      <trkpt lat="44.14519" lon="1.97126">
        <ele>157</ele>
        <time>2024-11-19T08:02:37Z</time>
      </trkpt>
      <trkpt lat="44.14502" lon="1.97039">
        <ele>156</ele>
        <time>2024-11-19T08:02:53Z</time>
      </trkpt>
      <trkpt lat="44.14502" lon="1.97023">
        <ele>155</ele>
        <time>2024-11-19T08:02:55Z</time>
      </trkpt>
      <trkpt lat="44.14506" lon="1.97017">
        <ele>156</ele>
        <time>2024-11-19T08:02:57Z</time>
      </trkpt>
      <trkpt lat="44.1452" lon="1.97014">
        <ele>157</ele>
        <time>2024-11-19T08:03:00Z</time>
      </trkpt>
      <trkpt lat="44.14528" lon="1.97016">
        <ele>158</ele>
        <time>2024-11-19T08:03:02Z</time>
      </trkpt>
      <trkpt lat="44.14533" lon="1.97023">
        <ele>158</ele>
        <time>2024-11-19T08:03:03Z</time>
      </trkpt>
      <trkpt lat="44.14537" lon="1.97034">
        <ele>159</ele>
        <time>2024-11-19T08:03:06Z</time>
      </trkpt>
      <trkpt lat="44.14543" lon="1.97062">
        <ele>160</ele>
        <time>2024-11-19T08:03:10Z</time>
      </trkpt>
      <trkpt lat="44.14551" lon="1.97074">
        <ele>161</ele>
        <time>2024-11-19T08:03:13Z</time>
      </trkpt>
      <trkpt lat="44.14552" lon="1.9708">
        <ele>162</ele>
        <time>2024-11-19T08:03:14Z</time>
      </trkpt>
      <trkpt lat="44.14546" lon="1.97082">
        <ele>161</ele>
        <time>2024-11-19T08:03:16Z</time>
      </trkpt>
      <trkpt lat="44.14523" lon="1.9709">
        <ele>158</ele>
        <time>2024-11-19T08:03:21Z</time>
      </trkpt>
      <trkpt lat="44.14464" lon="1.9711">
        <ele>157</ele>
        <time>2024-11-19T08:03:35Z</time>
      </trkpt>
      <trkpt lat="44.14459" lon="1.97111">
        <ele>157</ele>
        <time>2024-11-19T08:03:37Z</time>
      </trkpt>
      <trkpt lat="44.14454" lon="1.97112">
        <ele>158</ele>
        <time>2024-11-19T08:03:38Z</time>
      </trkpt>
      <trkpt lat="44.1444" lon="1.97116">
        <ele>158</ele>
        <time>2024-11-19T08:03:41Z</time>
      </trkpt>
      <trkpt lat="44.14419" lon="1.97126">
        <ele>159</ele>
        <time>2024-11-19T08:03:46Z</time>
      </trkpt>
      <trkpt lat="44.14401" lon="1.97146">
        <ele>158</ele>
        <time>2024-11-19T08:03:52Z</time>
      </trkpt>
      <trkpt lat="44.14385" lon="1.97163">
        <ele>157</ele>
        <time>2024-11-19T08:03:56Z</time>
      </trkpt>
      <trkpt lat="44.14375" lon="1.97174">
        <ele>157</ele>
        <time>2024-11-19T08:03:59Z</time>
      </trkpt>
      <trkpt lat="44.14377" lon="1.97176">
        <ele>157</ele>
        <time>2024-11-19T08:04:00Z</time>
      </trkpt>
      <trkpt lat="44.14375" lon="1.97174">
        <ele>157</ele>
        <time>2024-11-19T08:04:00Z</time>
      </trkpt>
      <trkpt lat="44.14357" lon="1.97145">
        <ele>156</ele>
        <time>2024-11-19T08:04:07Z</time>
      </trkpt>
      <trkpt lat="44.14358" lon="1.97144">
        <ele>156</ele>
        <time>2024-11-19T08:04:07Z</time>
      </trkpt>
      <trkpt lat="44.14354" lon="1.97138">
        <ele>156</ele>
        <time>2024-11-19T08:04:09Z</time>
      </trkpt>
      <trkpt lat="44.14343" lon="1.97123">
        <ele>156</ele>
        <time>2024-11-19T08:04:12Z</time>
      </trkpt>
      <trkpt lat="44.14316" lon="1.97082">
        <ele>159</ele>
        <time>2024-11-19T08:04:21Z</time>
      </trkpt>
      <trkpt lat="44.14315" lon="1.97079">
        <ele>159</ele>
        <time>2024-11-19T08:04:22Z</time>
      </trkpt>
      <trkpt lat="44.1431" lon="1.97081">
        <ele>159</ele>
        <time>2024-11-19T08:04:23Z</time>
      </trkpt>
      <trkpt lat="44.14308" lon="1.97078">
        <ele>160</ele>
        <time>2024-11-19T08:04:24Z</time>
      </trkpt>
      <trkpt lat="44.14302" lon="1.97074">
        <ele>160</ele>
        <time>2024-11-19T08:04:25Z</time>
      </trkpt>
      <trkpt lat="44.14293" lon="1.97073">
        <ele>161</ele>
        <time>2024-11-19T08:04:28Z</time>
      </trkpt>
      <trkpt lat="44.14286" lon="1.97076">
        <ele>162</ele>
        <time>2024-11-19T08:04:29Z</time>
      </trkpt>
      <trkpt lat="44.14238" lon="1.9709">
        <ele>171</ele>
        <time>2024-11-19T08:04:41Z</time>
      </trkpt>
      <trkpt lat="44.14228" lon="1.97099">
        <ele>176</ele>
        <time>2024-11-19T08:04:44Z</time>
      </trkpt>
      <trkpt lat="44.14225" lon="1.97107">
        <ele>177</ele>
        <time>2024-11-19T08:04:45Z</time>
      </trkpt>
      <trkpt lat="44.14223" lon="1.97147">
        <ele>174</ele>
        <time>2024-11-19T08:04:52Z</time>
      </trkpt>
      <trkpt lat="44.14219" lon="1.97196">
        <ele>174</ele>
        <time>2024-11-19T08:05:00Z</time>
      </trkpt>
      <trkpt lat="44.14223" lon="1.972">
        <ele>172</ele>
        <time>2024-11-19T08:05:01Z</time>
      </trkpt>
      <trkpt lat="44.14234" lon="1.97241">
        <ele>166</ele>
        <time>2024-11-19T08:05:09Z</time>
      </trkpt>
      <trkpt lat="44.14256" lon="1.97351">
        <ele>162</ele>
        <time>2024-11-19T08:05:28Z</time>
      </trkpt>
      <trkpt lat="44.14276" lon="1.97396">
        <ele>164</ele>
        <time>2024-11-19T08:05:37Z</time>
      </trkpt>
      <trkpt lat="44.1433" lon="1.97487">
        <ele>161</ele>
        <time>2024-11-19T08:05:56Z</time>
      </trkpt>
      <trkpt lat="44.14338" lon="1.97503">
        <ele>161</ele>
        <time>2024-11-19T08:06:00Z</time>
      </trkpt>
      <trkpt lat="44.14353" lon="1.97532">
        <ele>164</ele>
        <time>2024-11-19T08:06:06Z</time>
      </trkpt>
      <trkpt lat="44.14365" lon="1.97564">
        <ele>166</ele>
        <time>2024-11-19T08:06:12Z</time>
      </trkpt>
      <trkpt lat="44.14377" lon="1.97617">
        <ele>168</ele>
        <time>2024-11-19T08:06:21Z</time>
      </trkpt>
      <trkpt lat="44.14386" lon="1.9765">
        <ele>168</ele>
        <time>2024-11-19T08:06:27Z</time>
      </trkpt>
      <trkpt lat="44.14517" lon="1.97783">
        <ele>155</ele>
        <time>2024-11-19T08:07:05Z</time>
      </trkpt>
      <trkpt lat="44.14529" lon="1.97801">
        <ele>155</ele>
        <time>2024-11-19T08:07:09Z</time>
      </trkpt>
      <trkpt lat="44.14592" lon="1.97917">
        <ele>155</ele>
        <time>2024-11-19T08:07:33Z</time>
      </trkpt>
      <trkpt lat="44.14597" lon="1.97929">
        <ele>155</ele>
        <time>2024-11-19T08:07:36Z</time>
      </trkpt>
      <trkpt lat="44.14613" lon="1.97976">
        <ele>155</ele>
        <time>2024-11-19T08:07:44Z</time>
      </trkpt>
      <trkpt lat="44.14629" lon="1.97998">
        <ele>155</ele>
        <time>2024-11-19T08:07:49Z</time>
      </trkpt>
      <trkpt lat="44.14657" lon="1.98022">
        <ele>155</ele>
        <time>2024-11-19T08:07:57Z</time>
      </trkpt>
      <trkpt lat="44.1471" lon="1.98056">
        <ele>156</ele>
        <time>2024-11-19T08:08:11Z</time>
      </trkpt>
      <trkpt lat="44.14726" lon="1.98068">
        <ele>156</ele>
        <time>2024-11-19T08:08:15Z</time>
      </trkpt>
      <trkpt lat="44.14731" lon="1.98078">
        <ele>156</ele>
        <time>2024-11-19T08:08:17Z</time>
      </trkpt>
      <trkpt lat="44.14742" lon="1.98088">
        <ele>156</ele>
        <time>2024-11-19T08:08:20Z</time>
      </trkpt>
      <trkpt lat="44.14778" lon="1.9811">
        <ele>158</ele>
        <time>2024-11-19T08:08:29Z</time>
      </trkpt>
      <trkpt lat="44.14791" lon="1.98079">
        <ele>157</ele>
        <time>2024-11-19T08:08:35Z</time>
      </trkpt>
      <trkpt lat="44.148" lon="1.98074">
        <ele>157</ele>
        <time>2024-11-19T08:08:38Z</time>
      </trkpt>
      <trkpt lat="44.14803" lon="1.98074">
        <ele>157</ele>
        <time>2024-11-19T08:08:38Z</time>
      </trkpt>
      <trkpt lat="44.14833" lon="1.98085">
        <ele>158</ele>
        <time>2024-11-19T08:08:46Z</time>
      </trkpt>
      <trkpt lat="44.14896" lon="1.98101">
        <ele>160</ele>
        <time>2024-11-19T08:09:01Z</time>
      </trkpt>
      <trkpt lat="44.14937" lon="1.98097">
        <ele>160</ele>
        <time>2024-11-19T08:09:10Z</time>
      </trkpt>
      <trkpt lat="44.14997" lon="1.98097">
        <ele>159</ele>
        <time>2024-11-19T08:09:24Z</time>
      </trkpt>
      <trkpt lat="44.15018" lon="1.98087">
        <ele>158</ele>
        <time>2024-11-19T08:09:29Z</time>
      </trkpt>
      <trkpt lat="44.15046" lon="1.98088">
        <ele>160</ele>
        <time>2024-11-19T08:09:36Z</time>
      </trkpt>
      <trkpt lat="44.151" lon="1.98079">
        <ele>165</ele>
        <time>2024-11-19T08:09:49Z</time>
      </trkpt>
      <trkpt lat="44.15101" lon="1.98078">
        <ele>165</ele>
        <time>2024-11-19T08:09:49Z</time>
      </trkpt>
      <trkpt lat="44.15124" lon="1.98044">
        <ele>165</ele>
        <time>2024-11-19T08:09:57Z</time>
      </trkpt>
      <trkpt lat="44.15158" lon="1.98013">
        <ele>161</ele>
        <time>2024-11-19T08:10:06Z</time>
      </trkpt>
      <trkpt lat="44.152" lon="1.97995">
        <ele>161</ele>
        <time>2024-11-19T08:10:16Z</time>
      </trkpt>
      <trkpt lat="44.15232" lon="1.97989">
        <ele>163</ele>
        <time>2024-11-19T08:10:24Z</time>
      </trkpt>
      <trkpt lat="44.15286" lon="1.98005">
        <ele>162</ele>
        <time>2024-11-19T08:10:37Z</time>
      </trkpt>
      <trkpt lat="44.15321" lon="1.98015">
        <ele>163</ele>
        <time>2024-11-19T08:10:45Z</time>
      </trkpt>
      <trkpt lat="44.15446" lon="1.9814">
        <ele>171</ele>
        <time>2024-11-19T08:11:21Z</time>
      </trkpt>
      <trkpt lat="44.15505" lon="1.98193">
        <ele>168</ele>
        <time>2024-11-19T08:11:38Z</time>
      </trkpt>
      <trkpt lat="44.15515" lon="1.98202">
        <ele>169</ele>
        <time>2024-11-19T08:11:40Z</time>
      </trkpt>
      <trkpt lat="44.15553" lon="1.9822">
        <ele>168</ele>
        <time>2024-11-19T08:11:50Z</time>
      </trkpt>
      <trkpt lat="44.15619" lon="1.98291">
        <ele>170</ele>
        <time>2024-11-19T08:12:09Z</time>
      </trkpt>
      <trkpt lat="44.15649" lon="1.98348">
        <ele>172</ele>
        <time>2024-11-19T08:12:21Z</time>
      </trkpt>
      <trkpt lat="44.15663" lon="1.98392">
        <ele>170</ele>
        <time>2024-11-19T08:12:29Z</time>
      </trkpt>
      <trkpt lat="44.15656" lon="1.98462">
        <ele>170</ele>
        <time>2024-11-19T08:12:41Z</time>
      </trkpt>
      <trkpt lat="44.15631" lon="1.98503">
        <ele>173</ele>
        <time>2024-11-19T08:12:50Z</time>
      </trkpt>
      <trkpt lat="44.15628" lon="1.98504">
        <ele>173</ele>
        <time>2024-11-19T08:12:51Z</time>
      </trkpt>
      <trkpt lat="44.15631" lon="1.98503">
        <ele>173</ele>
        <time>2024-11-19T08:12:51Z</time>
      </trkpt>
      <trkpt lat="44.15592" lon="1.98545">
        <ele>173</ele>
        <time>2024-11-19T08:13:03Z</time>
      </trkpt>
      <trkpt lat="44.15517" lon="1.9857">
        <ele>172</ele>
        <time>2024-11-19T08:13:21Z</time>
      </trkpt>
      <trkpt lat="44.15451" lon="1.98581">
        <ele>172</ele>
        <time>2024-11-19T08:13:36Z</time>
      </trkpt>
      <trkpt lat="44.15395" lon="1.98573">
        <ele>174</ele>
        <time>2024-11-19T08:13:50Z</time>
      </trkpt>
      <trkpt lat="44.15342" lon="1.9855">
        <ele>176</ele>
        <time>2024-11-19T08:14:02Z</time>
      </trkpt>
      <trkpt lat="44.15237" lon="1.98439">
        <ele>176</ele>
        <time>2024-11-19T08:14:33Z</time>
      </trkpt>
      <trkpt lat="44.15176" lon="1.98381">
        <ele>181</ele>
        <time>2024-11-19T08:14:51Z</time>
      </trkpt>
      <trkpt lat="44.15136" lon="1.98345">
        <ele>189</ele>
        <time>2024-11-19T08:15:02Z</time>
      </trkpt>
      <trkpt lat="44.15066" lon="1.98358">
        <ele>181</ele>
        <time>2024-11-19T08:15:18Z</time>
      </trkpt>
      <trkpt lat="44.15035" lon="1.9837">
        <ele>179</ele>
        <time>2024-11-19T08:15:26Z</time>
      </trkpt>
      <trkpt lat="44.14973" lon="1.98392">
        <ele>176</ele>
        <time>2024-11-19T08:15:41Z</time>
      </trkpt>
      <trkpt lat="44.14915" lon="1.98449">
        <ele>169</ele>
        <time>2024-11-19T08:15:57Z</time>
      </trkpt>
      <trkpt lat="44.14888" lon="1.98532">
        <ele>169</ele>
        <time>2024-11-19T08:16:12Z</time>
      </trkpt>
      <trkpt lat="44.14844" lon="1.98513">
        <ele>177</ele>
        <time>2024-11-19T08:16:23Z</time>
      </trkpt>
      <trkpt lat="44.1483" lon="1.98651">
        <ele>175</ele>
        <time>2024-11-19T08:16:47Z</time>
      </trkpt>
      <trkpt lat="44.14828" lon="1.98693">
        <ele>175</ele>
        <time>2024-11-19T08:16:54Z</time>
      </trkpt>
      <trkpt lat="44.14814" lon="1.98724">
        <ele>183</ele>
        <time>2024-11-19T08:17:00Z</time>
      </trkpt>
      <trkpt lat="44.14841" lon="1.98896">
        <ele>181</ele>
        <time>2024-11-19T08:17:29Z</time>
      </trkpt>
      <trkpt lat="44.14886" lon="1.99143">
        <ele>179</ele>
        <time>2024-11-19T08:18:12Z</time>
      </trkpt>
      <trkpt lat="44.14906" lon="1.99326">
        <ele>173</ele>
        <time>2024-11-19T08:18:43Z</time>
      </trkpt>
      <trkpt lat="44.14944" lon="1.99305">
        <ele>165</ele>
        <time>2024-11-19T08:18:52Z</time>
      </trkpt>
      <trkpt lat="44.14992" lon="1.99526">
        <ele>164</ele>
        <time>2024-11-19T08:19:31Z</time>
      </trkpt>
      <trkpt lat="44.14947" lon="1.99537">
        <ele>173</ele>
        <time>2024-11-19T08:19:42Z</time>
      </trkpt>
      <trkpt lat="44.14955" lon="1.99561">
        <ele>173</ele>
        <time>2024-11-19T08:19:46Z</time>
      </trkpt>
      <trkpt lat="44.1496" lon="1.99577">
        <ele>172</ele>
        <time>2024-11-19T08:19:49Z</time>
      </trkpt>
      <trkpt lat="44.15008" lon="1.99709">
        <ele>175</ele>
        <time>2024-11-19T08:20:14Z</time>
      </trkpt>
      <trkpt lat="44.15023" lon="1.99783">
        <ele>179</ele>
        <time>2024-11-19T08:20:27Z</time>
      </trkpt>
      <trkpt lat="44.15036" lon="1.99865">
        <ele>182</ele>
        <time>2024-11-19T08:20:41Z</time>
      </trkpt>
      <trkpt lat="44.15041" lon="1.99922">
        <ele>183</ele>
        <time>2024-11-19T08:20:51Z</time>
      </trkpt>
      <trkpt lat="44.15047" lon="1.99988">
        <ele>185</ele>
        <time>2024-11-19T08:21:02Z</time>
      </trkpt>
      <trkpt lat="44.15045" lon="2.0004">
        <ele>189</ele>
        <time>2024-11-19T08:21:10Z</time>
      </trkpt>
      <trkpt lat="44.15037" lon="2.00105">
        <ele>195</ele>
        <time>2024-11-19T08:21:22Z</time>
      </trkpt>
      <trkpt lat="44.15035" lon="2.00135">
        <ele>196</ele>
        <time>2024-11-19T08:21:27Z</time>
      </trkpt>
      <trkpt lat="44.15049" lon="2.00264">
        <ele>183</ele>
        <time>2024-11-19T08:21:48Z</time>
      </trkpt>
      <trkpt lat="44.15051" lon="2.00285">
        <ele>180</ele>
        <time>2024-11-19T08:21:52Z</time>
      </trkpt>
      <trkpt lat="44.15051" lon="2.00307">
        <ele>178</ele>
        <time>2024-11-19T08:21:56Z</time>
      </trkpt>
      <trkpt lat="44.15048" lon="2.00321">
        <ele>177</ele>
        <time>2024-11-19T08:21:58Z</time>
      </trkpt>
      <trkpt lat="44.15038" lon="2.00336">
        <ele>177</ele>
        <time>2024-11-19T08:22:02Z</time>
      </trkpt>
      <trkpt lat="44.14987" lon="2.00378">
        <ele>180</ele>
        <time>2024-11-19T08:22:15Z</time>
      </trkpt>
      <trkpt lat="44.14971" lon="2.00389">
        <ele>182</ele>
        <time>2024-11-19T08:22:20Z</time>
      </trkpt>
      <trkpt lat="44.14963" lon="2.00397">
        <ele>182</ele>
        <time>2024-11-19T08:22:22Z</time>
      </trkpt>
      <trkpt lat="44.14959" lon="2.00407">
        <ele>181</ele>
        <time>2024-11-19T08:22:24Z</time>
      </trkpt>
      <trkpt lat="44.14958" lon="2.00411">
        <ele>180</ele>
        <time>2024-11-19T08:22:24Z</time>
      </trkpt>
      <trkpt lat="44.14959" lon="2.00407">
        <ele>181</ele>
        <time>2024-11-19T08:22:25Z</time>
      </trkpt>
      <trkpt lat="44.14947" lon="2.00413">
        <ele>183</ele>
        <time>2024-11-19T08:22:28Z</time>
      </trkpt>
      <trkpt lat="44.14926" lon="2.00438">
        <ele>184</ele>
        <time>2024-11-19T08:22:35Z</time>
      </trkpt>
      <trkpt lat="44.14909" lon="2.00484">
        <ele>179</ele>
        <time>2024-11-19T08:22:43Z</time>
      </trkpt>
      <trkpt lat="44.14883" lon="2.00525">
        <ele>178</ele>
        <time>2024-11-19T08:22:52Z</time>
      </trkpt>
      <trkpt lat="44.14848" lon="2.00549">
        <ele>176</ele>
        <time>2024-11-19T08:23:02Z</time>
      </trkpt>
      <trkpt lat="44.14809" lon="2.00548">
        <ele>178</ele>
        <time>2024-11-19T08:23:11Z</time>
      </trkpt>
      <trkpt lat="44.1476" lon="2.00525">
        <ele>182</ele>
        <time>2024-11-19T08:23:23Z</time>
      </trkpt>
      <trkpt lat="44.14705" lon="2.00474">
        <ele>187</ele>
        <time>2024-11-19T08:23:38Z</time>
      </trkpt>
      <trkpt lat="44.14681" lon="2.00447">
        <ele>187</ele>
        <time>2024-11-19T08:23:45Z</time>
      </trkpt>
      <trkpt lat="44.14676" lon="2.00437">
        <ele>187</ele>
        <time>2024-11-19T08:23:47Z</time>
      </trkpt>
      <trkpt lat="44.14628" lon="2.00325">
        <ele>205</ele>
        <time>2024-11-19T08:24:09Z</time>
      </trkpt>
      <trkpt lat="44.1461" lon="2.00306">
        <ele>209</ele>
        <time>2024-11-19T08:24:15Z</time>
      </trkpt>
      <trkpt lat="44.14563" lon="2.00276">
        <ele>218</ele>
        <time>2024-11-19T08:24:27Z</time>
      </trkpt>
      <trkpt lat="44.14526" lon="2.00281">
        <ele>222</ele>
        <time>2024-11-19T08:24:35Z</time>
      </trkpt>
      <trkpt lat="44.145" lon="2.00302">
        <ele>218</ele>
        <time>2024-11-19T08:24:42Z</time>
      </trkpt>
      <trkpt lat="44.14459" lon="2.00342">
        <ele>223</ele>
        <time>2024-11-19T08:24:54Z</time>
      </trkpt>
      <trkpt lat="44.14429" lon="2.00399">
        <ele>229</ele>
        <time>2024-11-19T08:25:06Z</time>
      </trkpt>
      <trkpt lat="44.14421" lon="2.00398">
        <ele>233</ele>
        <time>2024-11-19T08:25:08Z</time>
      </trkpt>
      <trkpt lat="44.14422" lon="2.00391">
        <ele>234</ele>
        <time>2024-11-19T08:25:09Z</time>
      </trkpt>
      <trkpt lat="44.1443" lon="2.00325">
        <ele>243</ele>
        <time>2024-11-19T08:25:20Z</time>
      </trkpt>
      <trkpt lat="44.14466" lon="2.00249">
        <ele>254</ele>
        <time>2024-11-19T08:25:35Z</time>
      </trkpt>
      <trkpt lat="44.14494" lon="2.00197">
        <ele>267</ele>
        <time>2024-11-19T08:25:46Z</time>
      </trkpt>
      <trkpt lat="44.14532" lon="2.00187">
        <ele>265</ele>
        <time>2024-11-19T08:25:55Z</time>
      </trkpt>
      <trkpt lat="44.14566" lon="2.00171">
        <ele>268</ele>
        <time>2024-11-19T08:26:04Z</time>
      </trkpt>
      <trkpt lat="44.14593" lon="2.00169">
        <ele>269</ele>
        <time>2024-11-19T08:26:10Z</time>
      </trkpt>
      <trkpt lat="44.14713" lon="2.00246">
        <ele>264</ele>
        <time>2024-11-19T08:26:41Z</time>
      </trkpt>
      <trkpt lat="44.14752" lon="2.00298">
        <ele>258</ele>
        <time>2024-11-19T08:26:53Z</time>
      </trkpt>
      <trkpt lat="44.14772" lon="2.00301">
        <ele>257</ele>
        <time>2024-11-19T08:26:58Z</time>
      </trkpt>
      <trkpt lat="44.14824" lon="2.00234">
        <ele>274</ele>
        <time>2024-11-19T08:27:15Z</time>
      </trkpt>
      <trkpt lat="44.14756" lon="2.00239">
        <ele>278</ele>
        <time>2024-11-19T08:27:31Z</time>
      </trkpt>
      <trkpt lat="44.14787" lon="2.00207">
        <ele>285</ele>
        <time>2024-11-19T08:27:40Z</time>
      </trkpt>
      <trkpt lat="44.14819" lon="2.00148">
        <ele>298</ele>
        <time>2024-11-19T08:27:52Z</time>
      </trkpt>
      <trkpt lat="44.14848" lon="2.00113">
        <ele>294</ele>
        <time>2024-11-19T08:28:01Z</time>
      </trkpt>
      <trkpt lat="44.14846" lon="2.0009">
        <ele>296</ele>
        <time>2024-11-19T08:28:05Z</time>
      </trkpt>
      <trkpt lat="44.14838" lon="2.0008">
        <ele>299</ele>
        <time>2024-11-19T08:28:07Z</time>
      </trkpt>
      <trkpt lat="44.14806" lon="2.00088">
        <ele>304</ele>
        <time>2024-11-19T08:28:15Z</time>
      </trkpt>
      <trkpt lat="44.14782" lon="2.00082">
        <ele>308</ele>
        <time>2024-11-19T08:28:21Z</time>
      </trkpt>
      <trkpt lat="44.14757" lon="2.00069">
        <ele>312</ele>
        <time>2024-11-19T08:28:27Z</time>
      </trkpt>
      <trkpt lat="44.14737" lon="2.00074">
        <ele>313</ele>
        <time>2024-11-19T08:28:32Z</time>
      </trkpt>
      <trkpt lat="44.14687" lon="2.00046">
        <ele>316</ele>
        <time>2024-11-19T08:28:44Z</time>
      </trkpt>
      <trkpt lat="44.14625" lon="2.00031">
        <ele>317</ele>
        <time>2024-11-19T08:28:59Z</time>
      </trkpt>
      <trkpt lat="44.14569" lon="2.00023">
        <ele>317</ele>
        <time>2024-11-19T08:29:12Z</time>
      </trkpt>
      <trkpt lat="44.14534" lon="2.00025">
        <ele>316</ele>
        <time>2024-11-19T08:29:20Z</time>
      </trkpt>
      <trkpt lat="44.1446" lon="2.00054">
        <ele>315</ele>
        <time>2024-11-19T08:29:38Z</time>
      </trkpt>
      <trkpt lat="44.14408" lon="2.00108">
        <ele>317</ele>
        <time>2024-11-19T08:29:53Z</time>
      </trkpt>
      <trkpt lat="44.14381" lon="2.0014">
        <ele>316</ele>
        <time>2024-11-19T08:30:02Z</time>
      </trkpt>
      <trkpt lat="44.14362" lon="2.00151">
        <ele>319</ele>
        <time>2024-11-19T08:30:06Z</time>
      </trkpt>
      <trkpt lat="44.14337" lon="2.00155">
        <ele>324</ele>
        <time>2024-11-19T08:30:12Z</time>
      </trkpt>
      <trkpt lat="44.1433" lon="2.00164">
        <ele>325</ele>
        <time>2024-11-19T08:30:15Z</time>
      </trkpt>
      <trkpt lat="44.14304" lon="2.00198">
        <ele>321</ele>
        <time>2024-11-19T08:30:23Z</time>
      </trkpt>
      <trkpt lat="44.14245" lon="2.0026">
        <ele>325</ele>
        <time>2024-11-19T08:30:40Z</time>
      </trkpt>
      <trkpt lat="44.14062" lon="2.00253">
        <ele>321</ele>
        <time>2024-11-19T08:31:23Z</time>
      </trkpt>
      <trkpt lat="44.14037" lon="2.00249">
        <ele>321</ele>
        <time>2024-11-19T08:31:29Z</time>
      </trkpt>
      <trkpt lat="44.13979" lon="2.0023">
        <ele>320</ele>
        <time>2024-11-19T08:31:43Z</time>
      </trkpt>
      <trkpt lat="44.13867" lon="2.00209">
        <ele>318</ele>
        <time>2024-11-19T08:32:09Z</time>
      </trkpt>
      <trkpt lat="44.13766" lon="2.00107">
        <ele>315</ele>
        <time>2024-11-19T08:32:38Z</time>
      </trkpt>
      <trkpt lat="44.13755" lon="2.00099">
        <ele>316</ele>
        <time>2024-11-19T08:32:41Z</time>
      </trkpt>
      <trkpt lat="44.13751" lon="2.00113">
        <ele>317</ele>
        <time>2024-11-19T08:32:44Z</time>
      </trkpt>
      <trkpt lat="44.13755" lon="2.00099">
        <ele>316</ele>
        <time>2024-11-19T08:32:46Z</time>
      </trkpt>
      <trkpt lat="44.13752" lon="2.00096">
        <ele>316</ele>
        <time>2024-11-19T08:32:47Z</time>
      </trkpt>
      <trkpt lat="44.13741" lon="2.0008">
        <ele>317</ele>
        <time>2024-11-19T08:32:51Z</time>
      </trkpt>
      <trkpt lat="44.13739" lon="2.00073">
        <ele>318</ele>
        <time>2024-11-19T08:32:52Z</time>
      </trkpt>
      <trkpt lat="44.13752" lon="2.0006">
        <ele>318</ele>
        <time>2024-11-19T08:32:56Z</time>
      </trkpt>
      <trkpt lat="44.13768" lon="2.00048">
        <ele>317</ele>
        <time>2024-11-19T08:33:00Z</time>
      </trkpt>
      <trkpt lat="44.13779" lon="2.00034">
        <ele>318</ele>
        <time>2024-11-19T08:33:03Z</time>
      </trkpt>
      <trkpt lat="44.13789" lon="1.9995">
        <ele>322</ele>
        <time>2024-11-19T08:33:18Z</time>
      </trkpt>
      <trkpt lat="44.13791" lon="1.99901">
        <ele>323</ele>
        <time>2024-11-19T08:33:26Z</time>
      </trkpt>
      <trkpt lat="44.13784" lon="1.99844">
        <ele>325</ele>
        <time>2024-11-19T08:33:36Z</time>
      </trkpt>
      <trkpt lat="44.13771" lon="1.99785">
        <ele>325</ele>
        <time>2024-11-19T08:33:46Z</time>
      </trkpt>
      <trkpt lat="44.13776" lon="1.996">
        <ele>328</ele>
        <time>2024-11-19T08:34:17Z</time>
      </trkpt>
      <trkpt lat="44.13781" lon="1.99539">
        <ele>329</ele>
        <time>2024-11-19T08:34:27Z</time>
      </trkpt>
      <trkpt lat="44.13797" lon="1.99514">
        <ele>329</ele>
        <time>2024-11-19T08:34:33Z</time>
      </trkpt>
      <trkpt lat="44.13821" lon="1.99452">
        <ele>330</ele>
        <time>2024-11-19T08:34:45Z</time>
      </trkpt>
      <trkpt lat="44.13859" lon="1.99321">
        <ele>334</ele>
        <time>2024-11-19T08:35:08Z</time>
      </trkpt>
      <trkpt lat="44.1386" lon="1.99307">
        <ele>334</ele>
        <time>2024-11-19T08:35:11Z</time>
      </trkpt>
      <trkpt lat="44.13863" lon="1.99305">
        <ele>334</ele>
        <time>2024-11-19T08:35:11Z</time>
      </trkpt>
      <trkpt lat="44.13897" lon="1.9928">
        <ele>335</ele>
        <time>2024-11-19T08:35:20Z</time>
      </trkpt>
      <trkpt lat="44.13909" lon="1.99273">
        <ele>335</ele>
        <time>2024-11-19T08:35:24Z</time>
      </trkpt>
      <trkpt lat="44.13915" lon="1.9907">
        <ele>336</ele>
        <time>2024-11-19T08:35:58Z</time>
      </trkpt>
      <trkpt lat="44.13905" lon="1.99018">
        <ele>335</ele>
        <time>2024-11-19T08:36:07Z</time>
      </trkpt>
      <trkpt lat="44.13934" lon="1.98925">
        <ele>331</ele>
        <time>2024-11-19T08:36:24Z</time>
      </trkpt>
      <trkpt lat="44.13953" lon="1.98902">
        <ele>330</ele>
        <time>2024-11-19T08:36:29Z</time>
      </trkpt>
      <trkpt lat="44.13986" lon="1.98848">
        <ele>326</ele>
        <time>2024-11-19T08:36:41Z</time>
      </trkpt>
      <trkpt lat="44.13999" lon="1.9882">
        <ele>323</ele>
        <time>2024-11-19T08:36:47Z</time>
      </trkpt>
      <trkpt lat="44.14018" lon="1.98774">
        <ele>320</ele>
        <time>2024-11-19T08:36:56Z</time>
      </trkpt>
      <trkpt lat="44.14022" lon="1.98712">
        <ele>317</ele>
        <time>2024-11-19T08:37:06Z</time>
      </trkpt>
      <trkpt lat="44.14022" lon="1.98617">
        <ele>311</ele>
        <time>2024-11-19T08:37:22Z</time>
      </trkpt>
      <trkpt lat="44.14024" lon="1.9856">
        <ele>307</ele>
        <time>2024-11-19T08:37:32Z</time>
      </trkpt>
      <trkpt lat="44.14001" lon="1.9845">
        <ele>293</ele>
        <time>2024-11-19T08:37:51Z</time>
      </trkpt>
      <trkpt lat="44.14006" lon="1.98386">
        <ele>286</ele>
        <time>2024-11-19T08:38:02Z</time>
      </trkpt>
      <trkpt lat="44.14009" lon="1.98365">
        <ele>283</ele>
        <time>2024-11-19T08:38:05Z</time>
      </trkpt>
      <trkpt lat="44.14023" lon="1.98312">
        <ele>278</ele>
        <time>2024-11-19T08:38:15Z</time>
      </trkpt>
      <trkpt lat="44.14026" lon="1.98268">
        <ele>273</ele>
        <time>2024-11-19T08:38:22Z</time>
      </trkpt>
      <trkpt lat="44.14026" lon="1.98211">
        <ele>262</ele>
        <time>2024-11-19T08:38:32Z</time>
      </trkpt>
      <trkpt lat="44.14007" lon="1.981">
        <ele>239</ele>
        <time>2024-11-19T08:38:51Z</time>
      </trkpt>
      <trkpt lat="44.1401" lon="1.98062">
        <ele>239</ele>
        <time>2024-11-19T08:38:57Z</time>
      </trkpt>
      <trkpt lat="44.14039" lon="1.98013">
        <ele>238</ele>
        <time>2024-11-19T08:39:08Z</time>
      </trkpt>
      <trkpt lat="44.14062" lon="1.97982">
        <ele>234</ele>
        <time>2024-11-19T08:39:15Z</time>
      </trkpt>
      <trkpt lat="44.14171" lon="1.97915">
        <ele>214</ele>
        <time>2024-11-19T08:39:43Z</time>
      </trkpt>
      <trkpt lat="44.14194" lon="1.97883">
        <ele>217</ele>
        <time>2024-11-19T08:39:51Z</time>
      </trkpt>
      <trkpt lat="44.14206" lon="1.97845">
        <ele>214</ele>
        <time>2024-11-19T08:39:58Z</time>
      </trkpt>
      <trkpt lat="44.14235" lon="1.97806">
        <ele>209</ele>
        <time>2024-11-19T08:40:07Z</time>
      </trkpt>
      <trkpt lat="44.14262" lon="1.97803">
        <ele>203</ele>
        <time>2024-11-19T08:40:13Z</time>
      </trkpt>
      <trkpt lat="44.1433" lon="1.97765">
        <ele>184</ele>
        <time>2024-11-19T08:40:31Z</time>
      </trkpt>
      <trkpt lat="44.14366" lon="1.97755">
        <ele>175</ele>
        <time>2024-11-19T08:40:39Z</time>
      </trkpt>
      <trkpt lat="44.14376" lon="1.97717">
        <ele>172</ele>
        <time>2024-11-19T08:40:46Z</time>
      </trkpt>
      <trkpt lat="44.14399" lon="1.97713">
        <ele>166</ele>
        <time>2024-11-19T08:40:51Z</time>
      </trkpt>
      <trkpt lat="44.14397" lon="1.97704">
        <ele>166</ele>
        <time>2024-11-19T08:40:53Z</time>
      </trkpt>
      <trkpt lat="44.14386" lon="1.9765">
        <ele>168</ele>
        <time>2024-11-19T08:41:02Z</time>
      </trkpt>
      <trkpt lat="44.14377" lon="1.97617">
        <ele>168</ele>
        <time>2024-11-19T08:41:08Z</time>
      </trkpt>
      <trkpt lat="44.14365" lon="1.97564">
        <ele>166</ele>
        <time>2024-11-19T08:41:18Z</time>
      </trkpt>
      <trkpt lat="44.14353" lon="1.97532">
        <ele>164</ele>
        <time>2024-11-19T08:41:24Z</time>
      </trkpt>
      <trkpt lat="44.1433" lon="1.97487">
        <ele>161</ele>
        <time>2024-11-19T08:41:33Z</time>
      </trkpt>
      <trkpt lat="44.14276" lon="1.97396">
        <ele>164</ele>
        <time>2024-11-19T08:41:53Z</time>
      </trkpt>
      <trkpt lat="44.14256" lon="1.97351">
        <ele>162</ele>
        <time>2024-11-19T08:42:02Z</time>
      </trkpt>
      <trkpt lat="44.14234" lon="1.97241">
        <ele>166</ele>
        <time>2024-11-19T08:42:21Z</time>
      </trkpt>
      <trkpt lat="44.14224" lon="1.97201">
        <ele>171</ele>
        <time>2024-11-19T08:42:28Z</time>
      </trkpt>
      <trkpt lat="44.14219" lon="1.97196">
        <ele>174</ele>
        <time>2024-11-19T08:42:29Z</time>
      </trkpt>
      <trkpt lat="44.14223" lon="1.97147">
        <ele>174</ele>
        <time>2024-11-19T08:42:37Z</time>
      </trkpt>
      <trkpt lat="44.14224" lon="1.97116">
        <ele>177</ele>
        <time>2024-11-19T08:42:43Z</time>
      </trkpt>
      <trkpt lat="44.14226" lon="1.97103">
        <ele>177</ele>
        <time>2024-11-19T08:42:45Z</time>
      </trkpt>
      <trkpt lat="44.14228" lon="1.97099">
        <ele>176</ele>
        <time>2024-11-19T08:42:46Z</time>
      </trkpt>
      <trkpt lat="44.14238" lon="1.9709">
        <ele>171</ele>
        <time>2024-11-19T08:42:49Z</time>
      </trkpt>
      <trkpt lat="44.14286" lon="1.97076">
        <ele>162</ele>
        <time>2024-11-19T08:43:00Z</time>
      </trkpt>
      <trkpt lat="44.14293" lon="1.97073">
        <ele>161</ele>
        <time>2024-11-19T08:43:02Z</time>
      </trkpt>
      <trkpt lat="44.14302" lon="1.97074">
        <ele>160</ele>
        <time>2024-11-19T08:43:04Z</time>
      </trkpt>
      <trkpt lat="44.14308" lon="1.97078">
        <ele>160</ele>
        <time>2024-11-19T08:43:05Z</time>
      </trkpt>
      <trkpt lat="44.1431" lon="1.97081">
        <ele>159</ele>
        <time>2024-11-19T08:43:06Z</time>
      </trkpt>
      <trkpt lat="44.14315" lon="1.97079">
        <ele>159</ele>
        <time>2024-11-19T08:43:07Z</time>
      </trkpt>
      <trkpt lat="44.14316" lon="1.97082">
        <ele>159</ele>
        <time>2024-11-19T08:43:08Z</time>
      </trkpt>
      <trkpt lat="44.14343" lon="1.97123">
        <ele>156</ele>
        <time>2024-11-19T08:43:17Z</time>
      </trkpt>
      <trkpt lat="44.14354" lon="1.97138">
        <ele>156</ele>
        <time>2024-11-19T08:43:21Z</time>
      </trkpt>
      <trkpt lat="44.14358" lon="1.97144">
        <ele>156</ele>
        <time>2024-11-19T08:43:22Z</time>
      </trkpt>
      <trkpt lat="44.14364" lon="1.97152">
        <ele>156</ele>
        <time>2024-11-19T08:43:24Z</time>
      </trkpt>
      <trkpt lat="44.14375" lon="1.97169">
        <ele>157</ele>
        <time>2024-11-19T08:43:28Z</time>
      </trkpt>
      <trkpt lat="44.14383" lon="1.9716">
        <ele>157</ele>
        <time>2024-11-19T08:43:30Z</time>
      </trkpt>
      <trkpt lat="44.14385" lon="1.97163">
        <ele>157</ele>
        <time>2024-11-19T08:43:31Z</time>
      </trkpt>
      <trkpt lat="44.14401" lon="1.97146">
        <ele>158</ele>
        <time>2024-11-19T08:43:36Z</time>
      </trkpt>
      <trkpt lat="44.14419" lon="1.97126">
        <ele>159</ele>
        <time>2024-11-19T08:43:41Z</time>
      </trkpt>
      <trkpt lat="44.1444" lon="1.97116">
        <ele>158</ele>
        <time>2024-11-19T08:43:46Z</time>
      </trkpt>
      <trkpt lat="44.14454" lon="1.97112">
        <ele>158</ele>
        <time>2024-11-19T08:43:50Z</time>
      </trkpt>
      <trkpt lat="44.14459" lon="1.97111">
        <ele>157</ele>
        <time>2024-11-19T08:43:51Z</time>
      </trkpt>
      <trkpt lat="44.14464" lon="1.9711">
        <ele>157</ele>
        <time>2024-11-19T08:43:52Z</time>
      </trkpt>
      <trkpt lat="44.14523" lon="1.9709">
        <ele>158</ele>
        <time>2024-11-19T08:44:06Z</time>
      </trkpt>
      <trkpt lat="44.14552" lon="1.9708">
        <ele>162</ele>
        <time>2024-11-19T08:44:13Z</time>
      </trkpt>
      <trkpt lat="44.14551" lon="1.97074">
        <ele>161</ele>
        <time>2024-11-19T08:44:14Z</time>
      </trkpt>
      <trkpt lat="44.14543" lon="1.97062">
        <ele>160</ele>
        <time>2024-11-19T08:44:17Z</time>
      </trkpt>
      <trkpt lat="44.14537" lon="1.97034">
        <ele>159</ele>
        <time>2024-11-19T08:44:22Z</time>
      </trkpt>
      <trkpt lat="44.14533" lon="1.97023">
        <ele>158</ele>
        <time>2024-11-19T08:44:24Z</time>
      </trkpt>
      <trkpt lat="44.14528" lon="1.97016">
        <ele>158</ele>
        <time>2024-11-19T08:44:25Z</time>
      </trkpt>
      <trkpt lat="44.1452" lon="1.97014">
        <ele>157</ele>
        <time>2024-11-19T08:44:27Z</time>
      </trkpt>
      <trkpt lat="44.14506" lon="1.97017">
        <ele>156</ele>
        <time>2024-11-19T08:44:31Z</time>
      </trkpt>
      <trkpt lat="44.14502" lon="1.97023">
        <ele>155</ele>
        <time>2024-11-19T08:44:32Z</time>
      </trkpt>
      <trkpt lat="44.14502" lon="1.97039">
        <ele>156</ele>
        <time>2024-11-19T08:44:35Z</time>
      </trkpt>
      <trkpt lat="44.14519" lon="1.97126">
        <ele>157</ele>
        <time>2024-11-19T08:44:50Z</time>
      </trkpt>
      <trkpt lat="44.14523" lon="1.97156">
        <ele>157</ele>
        <time>2024-11-19T08:44:55Z</time>
      </trkpt>
      <trkpt lat="44.14541" lon="1.97238">
        <ele>157</ele>
        <time>2024-11-19T08:45:09Z</time>
      </trkpt>
      <trkpt lat="44.14547" lon="1.97251">
        <ele>157</ele>
        <time>2024-11-19T08:45:12Z</time>
      </trkpt>
    </trkseg>
  </trk>
</gpx>